Latest Weather Observations for Gold Coast Seaway

IDQ60901

Issued at 6:31 am EST Monday 23 May 2022 (issued every 10 minutes, with the page automatically refreshed every 10 minutes)

About weather observations | Map of Brisbane area stations | Latest observations for Brisbane area | Other Formats
Station Details ID: 040764 Name: GOLD COAST SEAWAY Lat: -27.94 Lon: 153.43 Height: 2.98 m
Data from the previous 72 hours. | See also: Recent months at Gold Coast Seaway
Date/Time
EST
Temp
°C
App
Temp
°C
Dew
Point
°C
Rel
Hum
%
Delta-T
°C
Wind Press
QNH
hPa
Press
MSL
hPa
Rain since
9am
mm
Dir  Spd
km/h
Gust
km/h
Spd
kts
Gust
kts
23/06:30am 16.7 16.1 15.6 93 0.6 S 13 20 7 11 1021.6 1021.6 24.0
23/06:00am 16.5 14.4 14.7 89 1.0 S 19 28 10 15 1021.4 1021.4 22.8
23/05:30am 16.6 14.1 15.1 91 0.9 S 22 33 12 18 1021.1 1021.1 22.8
23/05:00am 16.6 15.0 15.0 90 0.9 S 17 28 9 15 1020.8 1020.8 22.2
23/04:30am 17.1 14.3 15.4 90 1.0 SSE 24 35 13 19 1020.6 1020.6 22.2
23/04:00am 16.8 14.2 15.0 89 1.0 SSE 22 33 12 18 1020.6 1020.6 22.2
23/03:30am 16.8 14.1 14.6 87 1.3 S 22 35 12 19 1020.2 1020.2 22.2
23/03:09am 17.4 13.7 15.9 91 0.9 SSE 30 48 16 26 1020.4 1020.4 22.2
23/03:00am 17.2 13.1 15.9 92 0.8 SSE 32 41 17 22 1020.6 1020.6 22.2
23/02:49am 17.0 14.6 15.5 91 0.9 SSE 22 44 12 24 1020.6 1020.6 22.0
23/02:30am 16.3 14.9 14.5 89 1.0 S 15 24 8 13 1020.4 1020.4 21.6
23/02:00am 16.9 14.4 15.1 89 1.0 SSE 22 32 12 17 1020.6 1020.6 21.6
23/01:30am 16.6 13.0 14.1 85 1.4 S 26 39 14 21 1020.8 1020.8 21.6
23/01:00am 15.9 14.2 14.6 92 0.7 S 17 26 9 14 1020.9 1020.9 21.6
23/12:30am 16.1 13.9 14.3 89 1.0 S 19 28 10 15 1021.0 1021.0 21.6
23/12:00am 16.3 13.9 14.3 88 1.1 S 20 33 11 18 1021.2 1021.2 21.6
 
Date/Time
EST
Temp
°C
App
Temp
°C
Dew
Point
°C
Rel
Hum
%
Delta-T
°C
Wind Press
QNH
hPa
Press
MSL
hPa
Rain since
9am
mm
Dir  Spd
km/h
Gust
km/h
Spd
kts
Gust
kts
22/11:30pm 15.8 14.4 14.5 92 0.7 S 15 22 8 12 1021.7 1021.7 21.6
22/11:00pm 16.4 13.8 14.9 91 0.9 SSE 22 44 12 24 1022.0 1022.0 21.6
22/10:30pm 17.4 13.4 16.1 92 0.8 SSE 32 44 17 24 1022.3 1022.3 21.4
22/10:20pm 17.1 13.8 16.0 93 0.6 SSE 28 46 15 25 1022.3 1022.3 21.2
22/10:00pm 16.5 14.9 14.9 90 0.9 S 17 26 9 14 1022.1 1022.1 20.6
22/09:30pm 16.2 14.3 15.1 93 0.6 S 19 32 10 17 1021.9 1021.9 20.6
22/09:00pm 16.5 15.4 15.4 93 0.6 SSW 15 22 8 12 1021.9 1021.9 20.4
22/08:47pm 16.8 13.0 14.8 88 1.2 SE 28 37 15 20 1022.1 1022.1 20.4
22/08:36pm 17.5 15.0 15.1 86 1.4 SE 22 46 12 25 1022.1 1022.1 20.0
22/08:30pm 16.9 14.7 14.9 88 1.2 SSE 20 28 11 15 1021.8 1021.8 20.0
22/08:18pm 16.5 12.6 14.5 88 1.1 SSE 28 46 15 25 1021.7 1021.7 20.0
22/08:06pm 16.7 15.2 15.4 92 0.8 S 17 43 9 23 1021.9 1021.9 17.4
22/08:00pm 16.5 16.2 15.5 94 0.6 SSW 11 19 6 10 1021.7 1021.7 17.0
22/07:30pm 16.8 16.3 15.8 94 0.6 S 13 20 7 11 1021.4 1021.4 17.0
22/07:00pm 16.6 15.7 15.8 95 0.5 S 15 24 8 13 1021.4 1021.4 16.4
22/06:30pm 16.7 14.9 15.4 92 0.8 S 19 33 10 18 1020.9 1020.9 15.6
22/06:12pm 18.4 15.2 16.4 88 1.2 SE 28 50 15 27 1020.8 1020.8 15.6
22/06:00pm 17.9 14.8 15.7 87 1.3 SSE 26 35 14 19 1020.6 1020.6 15.6
22/05:30pm 17.3 14.9 16.5 95 0.5 SSE 24 43 13 23 1020.6 1020.6 15.4
22/05:00pm 17.0 14.0 15.9 93 0.6 SSE 26 41 14 22 1020.4 1020.4 12.6
22/04:30pm 17.4 14.0 15.9 91 0.9 SSE 28 44 15 24 1019.8 1019.8 12.4
22/04:00pm 17.2 14.6 15.9 92 0.8 S 24 39 13 21 1019.8 1019.8 10.0
22/03:30pm 16.8 14.8 15.0 89 1.0 S 19 28 10 15 1019.3 1019.3 9.2
22/03:00pm 18.4 15.4 14.7 79 2.1 S 24 39 13 21 1019.5 1019.5 8.4
22/02:35pm 20.3 15.8 14.9 71 3.2 SSE 32 44 17 24 1019.1 1019.1 8.4
22/02:30pm 20.8 15.5 15.4 71 3.2 SE 37 44 20 24 1019.0 1019.0 8.4
22/02:00pm 21.1 16.2 16.3 74 2.9 SE 37 48 20 26 1018.9 1018.9 8.4
22/01:30pm 21.3 16.2 14.9 67 3.8 SE 35 44 19 24 1018.9 1018.9 8.4
22/01:00pm 21.3 16.5 15.6 70 3.4 SE 35 43 19 23 1019.0 1019.0 8.4
22/12:30pm 21.8 16.5 15.2 66 3.9 SE 37 44 20 24 1019.2 1019.2 8.4
22/12:00pm 21.3 15.7 15.4 69 3.5 SE 39 44 21 24 1019.7 1019.7 8.4
22/11:30am 20.9 15.5 15.9 73 3.0 SE 39 46 21 25 1020.2 1020.2 8.4
22/11:00am 20.3 16.7 15.3 73 2.9 SE 28 46 15 25 1020.5 1020.5 8.4
22/10:56am 19.8 18.6 17.0 84 1.7 SSE 19 46 10 25 1020.6 1020.6 8.4
22/10:30am 17.7 17.2 16.9 95 0.5 SSW 15 22 8 12 1021.1 1021.1 8.4
22/10:00am 17.1 16.7 16.3 95 0.5 SSW 13 22 7 12 1021.5 1021.5 7.4
22/09:30am 17.0 16.2 16.0 94 0.6 S 15 26 8 14 1021.5 1021.5 2.6
22/09:00am 17.3 16.1 16.2 93 0.6 SSW 17 28 9 15 1021.5 1021.5 57.4
22/08:30am 18.4 14.6 17.2 93 0.7 SE 33 44 18 24 1021.3 1021.3 55.4
22/08:00am 18.8 13.7 16.8 88 1.2 SE 39 48 21 26 1021.2 1021.2 54.8
22/07:51am 18.2 13.7 16.5 90 1.0 SE 35 48 19 26 1021.3 1021.3 54.8
22/07:30am 17.3 16.3 16.5 95 0.5 SSE 17 28 9 15 1021.3 1021.3 54.6
22/07:09am 17.9 13.2 16.8 93 0.7 ESE 37 50 20 27 1020.7 1020.7 50.6
22/07:01am 18.4 16.9 17.6 95 0.5 SE 22 48 12 26 1020.7 1020.7 49.2
22/07:00am 18.3 17.3 17.5 95 0.5 SE 19 41 10 22 1020.8 1020.8 49.0
22/06:43am 19.4 15.4 17.7 90 1.0 ESE 35 54 19 29 1020.5 1020.5 47.2
22/06:30am 19.4 15.6 18.2 93 0.7 ESE 35 44 19 24 1020.3 1020.3 46.8
22/06:00am 19.3 14.1 16.5 84 1.7 ESE 39 48 21 26 1020.1 1020.1 45.8
22/05:30am 18.0 12.3 17.2 95 0.5 ESE 43 52 23 28 1020.1 1020.1 43.4
22/05:24am 18.2 13.0 17.4 95 0.5 ESE 41 54 22 29 1020.2 1020.2 40.0
22/05:00am 18.9 14.4 17.4 91 0.9 SE 37 48 20 26 1019.9 1019.9 37.6
22/04:50am 18.5 13.8 16.8 90 1.0 SE 37 46 20 25 1020.0 1020.0 37.4
22/04:30am 18.7 13.4 17.2 91 0.9 ESE 41 46 22 25 1019.9 1019.9 37.0
22/04:00am 18.7 13.8 17.4 92 0.8 ESE 39 46 21 25 1020.1 1020.1 36.2
22/03:30am 18.2 13.5 16.9 92 0.8 ESE 37 56 20 30 1020.3 1020.3 34.0
22/03:29am 18.2 13.7 16.5 90 1.0 ESE 35 54 19 29 1020.4 1020.4 33.6
22/03:00am 18.7 12.7 17.0 90 1.0 ESE 44 52 24 28 1020.4 1020.4 33.0
22/02:36am 18.6 13.8 17.6 94 0.6 ESE 39 52 21 28 1020.4 1020.4 31.8
22/02:30am 18.6 14.3 17.9 96 0.4 SE 37 46 20 25 1020.5 1020.5 31.0
22/02:16am 18.6 13.2 17.1 91 0.9 ESE 41 59 22 32 1020.5 1020.5 26.6
22/02:00am 19.4 13.8 17.4 88 1.2 SE 43 54 23 29 1020.7 1020.7 26.0
22/01:30am 18.7 15.1 17.7 94 0.6 SE 33 44 18 24 1021.5 1021.5 25.8
22/01:00am 18.9 14.3 17.2 90 1.0 SE 37 44 20 24 1021.9 1021.9 25.2
22/12:30am 18.4 16.4 17.4 94 0.6 SSE 24 39 13 21 1022.5 1022.5 23.8
22/12:00am 17.7 13.8 16.9 95 0.5 SE 33 43 18 23 1022.5 1022.5 19.6
 
Date/Time
EST
Temp
°C
App
Temp
°C
Dew
Point
°C
Rel
Hum
%
Delta-T
°C
Wind Press
QNH
hPa
Press
MSL
hPa
Rain since
9am
mm
Dir  Spd
km/h
Gust
km/h
Spd
kts
Gust
kts
21/11:30pm 19.0 14.6 16.6 86 1.4 ESE 35 44 19 24 1022.4 1022.4 14.4
21/11:00pm 20.1 14.9 16.5 80 2.2 ESE 39 46 21 25 1022.3 1022.3 14.2
21/10:48pm 19.8 18.0 17.9 89 1.2 SE 24 44 13 24 1022.2 1022.2 14.2
21/10:30pm 16.9 16.1 16.1 95 0.5 S 15 22 8 12 1022.3 1022.3 14.0
21/10:00pm 17.1 15.9 16.0 93 0.6 S 17 28 9 15 1022.8 1022.8 13.8
21/09:30pm 18.7 14.2 16.5 87 1.3 SE 35 46 19 25 1022.9 1022.9 13.4
21/09:25pm 18.8 15.9 16.2 85 1.6 SE 26 46 14 25 1022.9 1022.9 13.4
21/09:00pm 17.5 15.0 16.2 92 0.8 S 24 37 13 20 1023.1 1023.1 13.4
21/08:30pm 16.8 16.3 16.0 95 0.5 S 13 20 7 11 1023.3 1023.3 13.4
21/08:00pm 16.7 16.5 15.7 94 0.6 S 11 19 6 10 1024.0 1024.0 13.2
21/07:30pm 16.7 15.8 15.9 95 0.5 SSW 15 22 8 12 1023.7 1023.7 12.6
21/07:00pm 16.8 15.5 15.7 93 0.6 SSW 17 24 9 13 1023.7 1023.7 11.8
21/06:30pm 16.9 15.6 15.8 93 0.6 S 17 28 9 15 1023.4 1023.4 11.4
21/06:00pm 17.0 16.2 16.0 94 0.6 SSW 15 24 8 13 1023.0 1023.0 11.2
21/05:30pm 16.9 15.6 15.8 93 0.6 SSW 17 22 9 12 1022.8 1022.8 11.2
21/05:00pm 17.0 15.7 15.9 93 0.6 SW 17 26 9 14 1023.1 1023.1 10.8
21/04:36pm 17.9 13.5 15.7 87 1.3 SE 33 46 18 25 1023.1 1023.1 10.8
21/04:30pm 19.0 14.1 16.4 85 1.6 SE 37 46 20 25 1022.8 1022.8 10.6
21/04:18pm 18.9 17.2 17.2 90 1.0 SSE 22 43 12 23 1022.8 1022.8 9.2
21/04:00pm 17.3 16.9 16.2 93 0.6 SSW 13 24 7 13 1022.5 1022.5 8.8
21/03:30pm 18.2 17.2 16.5 90 1.0 SSE 17 48 9 26 1022.5 1022.5 7.6
21/03:28pm 18.4 18.0 17.2 93 0.7 SSE 15 48 8 26 1022.6 1022.6 6.0
21/03:00pm 19.2 18.0 16.1 82 1.8 SSE 17 28 9 15 1022.4 1022.4 4.4
21/02:30pm 21.0 15.8 14.4 66 3.9 SE 35 44 19 24 1022.1 1022.1 4.4
21/02:00pm 20.9 15.4 14.8 68 3.6 SE 37 46 20 25 1022.1 1022.1 4.4
21/01:30pm 20.7 14.9 15.0 70 3.4 SE 39 46 21 25 1022.6 1022.6 4.4
21/01:00pm 20.3 15.6 15.9 76 2.6 SE 35 43 19 23 1022.7 1022.7 4.4
21/12:30pm 20.1 14.2 14.7 71 3.2 ESE 39 46 21 25 1023.1 1023.1 4.2
21/12:00pm 20.3 14.3 15.5 74 2.8 SE 41 50 22 27 1023.4 1023.4 4.0
21/11:30am 20.3 14.0 15.7 75 2.7 ESE 43 52 23 28 1023.6 1023.6 4.0
21/11:00am 19.9 14.2 17.3 85 1.6 ESE 43 50 23 27 1023.6 1023.6 3.8
21/10:30am 19.3 13.4 17.1 87 1.3 ESE 44 65 24 35 1024.2 1024.2 3.8
21/10:00am 19.8 15.5 15.9 78 2.3 ESE 33 48 18 26 1024.6 1024.6 2.0
21/09:52am 19.8 17.1 17.6 87 1.3 ESE 28 48 15 26 1024.7 1024.7 1.8
21/09:30am 18.8 15.1 16.9 89 1.1 ESE 32 41 17 22 1024.9 1024.9 1.4
21/09:00am 19.3 16.5 17.4 89 1.2 E 28 33 15 18 1025.2 1025.2 -
21/08:30am 18.5 13.9 17.0 91 0.9 ESE 37 48 20 26 1025.5 1025.5 -
21/08:00am 18.4 14.5 16.9 91 0.9 ESE 33 41 18 22 1025.5 1025.5 -
21/07:30am 18.9 14.0 17.2 90 1.0 ESE 39 46 21 25 1024.9 1024.9 -
21/07:00am 18.6 13.1 16.8 89 1.1 ESE 41 50 22 27 1024.5 1024.5 -
21/06:30am 19.2 15.7 18.0 93 0.7 SE 33 41 18 22 1024.1 1024.1 -
21/06:19am 18.0 15.0 16.9 93 0.7 SSE 28 46 15 25 1024.4 1024.4 -
21/06:00am 17.9 18.0 17.4 97 0.3 SW 13 35 7 19 1024.2 1024.2 -
21/05:30am 17.3 16.9 16.2 93 0.7 S 13 19 7 10 1024.4 1024.4 -
21/05:00am 17.1 16.7 16.1 94 0.6 S 13 20 7 11 1023.6 1023.6 -
21/04:30am 16.7 15.1 15.9 95 0.5 S 19 37 10 20 1023.8 1023.8 -
21/04:00am 17.1 16.3 16.0 93 0.6 SSW 15 22 8 12 1024.1 1024.1 -
21/03:30am 17.5 16.5 15.7 89 1.1 S 15 22 8 12 1023.9 1023.9 -
21/03:00am 17.2 16.9 15.5 90 1.0 S 11 19 6 10 1024.3 1024.3 31.0
21/02:30am 17.4 16.4 15.6 89 1.1 S 15 22 8 12 1024.2 1024.2 -
21/02:00am 16.9 15.8 15.4 91 0.9 SSW 15 22 8 12 1024.7 1024.7 -
21/01:30am 16.9 16.4 15.8 93 0.6 SSW 13 20 7 11 1024.6 1024.6 -
21/01:00am 17.3 15.3 15.6 90 1.0 S 20 32 11 17 1024.9 1024.9 -
21/12:30am 18.4 14.3 16.0 86 1.4 SE 32 43 17 23 1025.0 1025.0 -
21/12:00am 18.0 16.7 16.7 92 0.8 SSE 19 28 10 15 1025.5 1025.5 -
 
Date/Time
EST
Temp
°C
App
Temp
°C
Dew
Point
°C
Rel
Hum
%
Delta-T
°C
Wind Press
QNH
hPa
Press
MSL
hPa
Rain since
9am
mm
Dir  Spd
km/h
Gust
km/h
Spd
kts
Gust
kts
20/11:30pm 17.5 16.0 15.3 87 1.3 SE 17 28 9 15 1025.9 1025.9 -
20/11:00pm 17.1 15.6 15.4 90 1.0 SSW 17 26 9 14 1026.1 1026.1 -
20/10:30pm 17.2 15.4 15.4 89 1.1 S 19 30 10 16 1026.0 1026.0 -
20/10:00pm 18.5 15.5 15.9 85 1.5 SSE 26 39 14 21 1026.1 1026.1 -
20/09:30pm 19.5 15.7 15.8 79 2.2 SE 30 43 16 23 1025.7 1025.7 -
20/09:16pm 19.3 16.1 16.3 83 1.8 SSE 28 52 15 28 1025.7 1025.7 -
20/09:00pm 18.3 16.5 14.4 78 2.2 SSE 17 28 9 15 1025.8 1025.8 0.0
20/08:30pm 18.5 15.6 14.0 75 2.6 SSE 22 39 12 21 1025.5 1025.5 -
20/08:01pm 18.9 15.3 15.2 79 2.2 SSE 28 46 15 25 1026.2 1026.2 -
20/08:00pm 19.0 15.1 15.5 80 2.1 SSE 30 46 16 25 1026.2 1026.2 -
20/07:56pm 18.9 15.3 15.2 79 2.2 SSE 28 46 15 25 1026.3 1026.3 -
20/07:30pm 18.6 15.6 13.7 73 2.8 SSE 22 35 12 19 1026.0 1026.0 -
20/07:00pm 18.4 15.8 13.3 72 2.9 S 19 28 10 15 1026.2 1026.2 -
20/06:30pm 18.6 16.4 13.2 71 3.0 S 17 28 9 15 1025.8 1025.8 -
20/06:00pm 19.6 16.4 14.2 71 3.1 SSE 24 35 13 19 1025.3 1025.3 -
20/05:30pm 18.8 15.2 13.0 69 3.3 S 24 39 13 21 1025.4 1025.4 -
20/05:00pm 19.0 15.8 13.0 68 3.4 SSE 22 32 12 17 1025.2 1025.2 -
20/04:30pm 19.0 16.5 13.6 71 3.1 S 19 28 10 15 1025.4 1025.4 -
20/04:00pm 19.0 16.0 13.6 71 3.1 SSE 22 33 12 18 1024.8 1024.8 -
20/03:30pm 19.0 15.6 13.8 72 3.0 SSE 24 33 13 18 1024.3 1024.3 -
20/03:00pm 19.0 16.6 14.5 75 2.6 SSE 20 35 11 19 1024.4 1024.4 -
20/02:30pm 18.1 17.7 15.2 83 1.7 S 11 24 6 13 1024.4 1024.4 -
20/02:00pm 18.7 16.5 15.0 79 2.1 S 20 30 11 16 1024.4 1024.4 -
20/01:30pm 19.1 17.6 15.2 78 2.3 SSE 17 26 9 14 1024.1 1024.1 -
20/01:00pm 18.7 17.0 15.8 83 1.7 S 19 26 10 14 1024.8 1024.8 -
20/12:30pm 18.8 16.5 15.7 82 1.8 SSE 22 30 12 16 1024.5 1024.5 -
20/12:00pm 18.3 16.3 15.6 84 1.6 SE 20 32 11 17 1024.9 1024.9 -
20/11:30am 19.0 17.1 15.7 81 2.0 SSE 20 30 11 16 1024.9 1024.9 -
20/11:00am 18.2 18.6 16.2 88 1.2 SSW 9 17 5 9 1025.4 1025.4 0.6
20/10:30am 19.4 16.9 16.1 81 2.0 ESE 24 35 13 19 1025.9 1025.9 0.0
20/10:00am 18.6 16.6 15.5 82 1.8 ESE 20 32 11 17 1025.8 1025.8 0.0
20/09:30am 19.8 16.9 15.2 75 2.7 ESE 24 35 13 19 1025.8 1025.8 0.0
20/09:00am 20.2 17.2 14.8 71 3.1 E 24 35 13 19 1025.6 1025.6 0.0
20/08:30am 20.0 17.3 14.6 71 3.1 ESE 22 32 12 17 1025.5 1025.5 0.0
20/08:00am 19.6 17.3 14.2 71 3.1 ESE 19 28 10 15 1025.4 1025.4 0.0
20/07:30am 19.3 16.4 13.9 71 3.1 ESE 22 32 12 17 1025.1 1025.1 0.0
20/07:00am 19.0 16.5 13.4 70 3.2 SE 19 26 10 14 1024.9 1024.9 0.0

Latest Capital City Observations: Canberra | Sydney | Melbourne | Brisbane | Adelaide | Perth | Hobart | Darwin

Other formats

Comma delimited format used in spreadsheet applications
http://www.bom.gov.au/fwo/IDQ60901/IDQ60901.94580.axf

JavaScript Object Notation format (JSON) in row-major order
http://www.bom.gov.au/fwo/IDQ60901/IDQ60901.94580.json

Data quality

Most of these data are generated automatically and are frequently updated. Quality checks on data are not normally performed. It is possible for incorrect values to appear. Refer to information at About Latest Weather Observations and please check the disclaimer before using these data.